sensor_id;sensor_type;location;lat;lon;timestamp;P1;durP1;ratioP1;P2;durP2;ratioP2
21036;SDS011;10677;50.942;4.028;2023-04-15T00:02:15;6.65;;;3.90;;
21036;SDS011;10677;50.942;4.028;2023-04-15T00:04:42;7.22;;;4.25;;
21036;SDS011;10677;50.942;4.028;2023-04-15T00:07:09;7.78;;;4.03;;
21036;SDS011;10677;50.942;4.028;2023-04-15T00:09:35;5.97;;;3.80;;
21036;SDS011;10677;50.942;4.028;2023-04-15T00:12:00;5.70;;;3.67;;
21036;SDS011;10677;50.942;4.028;2023-04-15T00:14:26;5.15;;;3.80;;
21036;SDS011;10677;50.942;4.028;2023-04-15T00:16:52;7.72;;;4.22;;
21036;SDS011;10677;50.942;4.028;2023-04-15T00:19:20;7.15;;;4.13;;
21036;SDS011;10677;50.942;4.028;2023-04-15T00:21:46;7.38;;;3.88;;
21036;SDS011;10677;50.942;4.028;2023-04-15T00:24:11;6.13;;;3.85;;
21036;SDS011;10677;50.942;4.028;2023-04-15T00:26:37;7.15;;;3.35;;
21036;SDS011;10677;50.942;4.028;2023-04-15T00:29:03;6.80;;;3.20;;
21036;SDS011;10677;50.942;4.028;2023-04-15T00:31:30;6.45;;;3.40;;
21036;SDS011;10677;50.942;4.028;2023-04-15T00:33:56;5.63;;;3.45;;
21036;SDS011;10677;50.942;4.028;2023-04-15T00:36:22;6.30;;;3.47;;
21036;SDS011;10677;50.942;4.028;2023-04-15T00:38:48;6.60;;;3.70;;
21036;SDS011;10677;50.942;4.028;2023-04-15T00:41:14;6.60;;;3.90;;
21036;SDS011;10677;50.942;4.028;2023-04-15T00:43:39;7.63;;;4.18;;
21036;SDS011;10677;50.942;4.028;2023-04-15T00:46:06;6.78;;;3.75;;
21036;SDS011;10677;50.942;4.028;2023-04-15T00:48:33;6.93;;;4.30;;
21036;SDS011;10677;50.942;4.028;2023-04-15T00:50:59;8.40;;;4.78;;
21036;SDS011;10677;50.942;4.028;2023-04-15T00:53:25;7.22;;;4.85;;
21036;SDS011;10677;50.942;4.028;2023-04-15T00:55:51;8.63;;;5.13;;
21036;SDS011;10677;50.942;4.028;2023-04-15T00:58:17;6.40;;;4.60;;
21036;SDS011;10677;50.942;4.028;2023-04-15T01:00:43;8.23;;;4.80;;
21036;SDS011;10677;50.942;4.028;2023-04-15T01:03:10;7.32;;;4.72;;
21036;SDS011;10677;50.942;4.028;2023-04-15T01:05:36;9.90;;;5.13;;
21036;SDS011;10677;50.942;4.028;2023-04-15T01:08:03;8.07;;;4.95;;
21036;SDS011;10677;50.942;4.028;2023-04-15T01:10:29;7.85;;;4.65;;
21036;SDS011;10677;50.942;4.028;2023-04-15T01:12:55;7.38;;;5.40;;
21036;SDS011;10677;50.942;4.028;2023-04-15T01:15:22;7.38;;;5.13;;
21036;SDS011;10677;50.942;4.028;2023-04-15T01:17:48;9.50;;;5.85;;
21036;SDS011;10677;50.942;4.028;2023-04-15T01:20:14;8.27;;;5.53;;
21036;SDS011;10677;50.942;4.028;2023-04-15T01:22:41;9.23;;;5.88;;
21036;SDS011;10677;50.942;4.028;2023-04-15T01:25:15;9.45;;;5.53;;
21036;SDS011;10677;50.942;4.028;2023-04-15T01:27:42;8.68;;;5.97;;
21036;SDS011;10677;50.942;4.028;2023-04-15T01:30:08;8.38;;;6.40;;
21036;SDS011;10677;50.942;4.028;2023-04-15T01:32:34;11.77;;;6.72;;
21036;SDS011;10677;50.942;4.028;2023-04-15T01:35:00;12.07;;;6.75;;
21036;SDS011;10677;50.942;4.028;2023-04-15T01:37:26;11.90;;;7.60;;
21036;SDS011;10677;50.942;4.028;2023-04-15T01:39:53;11.93;;;7.05;;
21036;SDS011;10677;50.942;4.028;2023-04-15T01:42:20;11.75;;;7.50;;
21036;SDS011;10677;50.942;4.028;2023-04-15T01:44:46;11.63;;;7.22;;
21036;SDS011;10677;50.942;4.028;2023-04-15T01:47:12;12.68;;;7.70;;
21036;SDS011;10677;50.942;4.028;2023-04-15T01:49:38;12.05;;;7.80;;
21036;SDS011;10677;50.942;4.028;2023-04-15T01:52:03;11.40;;;6.82;;
21036;SDS011;10677;50.942;4.028;2023-04-15T01:54:29;12.05;;;7.13;;
21036;SDS011;10677;50.942;4.028;2023-04-15T01:56:55;9.77;;;5.72;;
21036;SDS011;10677;50.942;4.028;2023-04-15T01:59:21;8.65;;;5.25;;
21036;SDS011;10677;50.942;4.028;2023-04-15T02:01:46;10.13;;;5.95;;
21036;SDS011;10677;50.942;4.028;2023-04-15T02:04:12;13.30;;;5.82;;
21036;SDS011;10677;50.942;4.028;2023-04-15T02:06:44;10.88;;;6.25;;
21036;SDS011;10677;50.942;4.028;2023-04-15T02:09:10;11.80;;;6.63;;
21036;SDS011;10677;50.942;4.028;2023-04-15T02:11:36;12.40;;;6.30;;
21036;SDS011;10677;50.942;4.028;2023-04-15T02:14:04;10.88;;;6.30;;
21036;SDS011;10677;50.942;4.028;2023-04-15T02:16:31;8.98;;;5.72;;
21036;SDS011;10677;50.942;4.028;2023-04-15T02:18:57;13.15;;;6.97;;
21036;SDS011;10677;50.942;4.028;2023-04-15T02:21:25;11.90;;;6.35;;
21036;SDS011;10677;50.942;4.028;2023-04-15T02:23:51;10.73;;;6.38;;
21036;SDS011;10677;50.942;4.028;2023-04-15T02:26:18;14.05;;;6.30;;
21036;SDS011;10677;50.942;4.028;2023-04-15T02:28:44;9.57;;;6.10;;
21036;SDS011;10677;50.942;4.028;2023-04-15T02:31:10;12.27;;;6.93;;
21036;SDS011;10677;50.942;4.028;2023-04-15T02:33:36;12.00;;;6.75;;
21036;SDS011;10677;50.942;4.028;2023-04-15T02:36:02;13.07;;;6.93;;
21036;SDS011;10677;50.942;4.028;2023-04-15T02:38:28;14.77;;;6.53;;
21036;SDS011;10677;50.942;4.028;2023-04-15T02:40:55;12.60;;;7.18;;
21036;SDS011;10677;50.942;4.028;2023-04-15T02:43:21;16.25;;;7.00;;
21036;SDS011;10677;50.942;4.028;2023-04-15T02:45:47;11.00;;;6.32;;
21036;SDS011;10677;50.942;4.028;2023-04-15T02:48:12;12.32;;;6.55;;
21036;SDS011;10677;50.942;4.028;2023-04-15T02:50:38;12.30;;;6.80;;
21036;SDS011;10677;50.942;4.028;2023-04-15T02:53:05;14.25;;;7.10;;
21036;SDS011;10677;50.942;4.028;2023-04-15T02:55:31;12.30;;;7.53;;
21036;SDS011;10677;50.942;4.028;2023-04-15T02:57:57;10.98;;;6.65;;
21036;SDS011;10677;50.942;4.028;2023-04-15T03:00:24;13.30;;;7.43;;
21036;SDS011;10677;50.942;4.028;2023-04-15T03:02:50;12.85;;;7.13;;
21036;SDS011;10677;50.942;4.028;2023-04-15T03:05:20;11.73;;;6.75;;
21036;SDS011;10677;50.942;4.028;2023-04-15T03:07:49;9.57;;;6.57;;
21036;SDS011;10677;50.942;4.028;2023-04-15T03:10:17;12.25;;;7.03;;
21036;SDS011;10677;50.942;4.028;2023-04-15T03:12:44;12.90;;;7.53;;
21036;SDS011;10677;50.942;4.028;2023-04-15T03:15:10;11.75;;;7.38;;
21036;SDS011;10677;50.942;4.028;2023-04-15T03:17:36;9.75;;;6.13;;
21036;SDS011;10677;50.942;4.028;2023-04-15T03:20:02;12.30;;;6.53;;
21036;SDS011;10677;50.942;4.028;2023-04-15T03:22:29;11.57;;;6.90;;
21036;SDS011;10677;50.942;4.028;2023-04-15T03:24:55;10.48;;;6.43;;
21036;SDS011;10677;50.942;4.028;2023-04-15T03:27:21;12.65;;;6.93;;
21036;SDS011;10677;50.942;4.028;2023-04-15T03:29:47;11.30;;;6.90;;
21036;SDS011;10677;50.942;4.028;2023-04-15T03:32:13;10.50;;;5.82;;
21036;SDS011;10677;50.942;4.028;2023-04-15T03:34:39;12.98;;;6.43;;
21036;SDS011;10677;50.942;4.028;2023-04-15T03:37:05;10.05;;;6.40;;
21036;SDS011;10677;50.942;4.028;2023-04-15T03:39:31;12.20;;;7.05;;
21036;SDS011;10677;50.942;4.028;2023-04-15T03:41:57;11.57;;;6.65;;
21036;SDS011;10677;50.942;4.028;2023-04-15T03:44:24;12.50;;;6.65;;
21036;SDS011;10677;50.942;4.028;2023-04-15T03:46:50;9.45;;;6.32;;
21036;SDS011;10677;50.942;4.028;2023-04-15T03:49:16;14.35;;;7.20;;
21036;SDS011;10677;50.942;4.028;2023-04-15T03:51:43;14.85;;;7.32;;
21036;SDS011;10677;50.942;4.028;2023-04-15T03:54:09;12.20;;;7.13;;
21036;SDS011;10677;50.942;4.028;2023-04-15T03:56:35;12.82;;;7.47;;
21036;SDS011;10677;50.942;4.028;2023-04-15T03:59:01;11.98;;;7.57;;
21036;SDS011;10677;50.942;4.028;2023-04-15T04:01:26;11.88;;;7.82;;
21036;SDS011;10677;50.942;4.028;2023-04-15T04:03:52;14.00;;;7.45;;
21036;SDS011;10677;50.942;4.028;2023-04-15T04:06:18;12.73;;;7.13;;
21036;SDS011;10677;50.942;4.028;2023-04-15T04:08:44;10.75;;;7.15;;
21036;SDS011;10677;50.942;4.028;2023-04-15T04:11:09;14.30;;;8.48;;
21036;SDS011;10677;50.942;4.028;2023-04-15T04:13:35;13.85;;;8.02;;
21036;SDS011;10677;50.942;4.028;2023-04-15T04:16:01;10.68;;;7.32;;
21036;SDS011;10677;50.942;4.028;2023-04-15T04:18:28;13.60;;;8.43;;
21036;SDS011;10677;50.942;4.028;2023-04-15T04:20:55;10.25;;;7.20;;
21036;SDS011;10677;50.942;4.028;2023-04-15T04:23:21;13.50;;;8.27;;
21036;SDS011;10677;50.942;4.028;2023-04-15T04:25:46;11.20;;;8.02;;
21036;SDS011;10677;50.942;4.028;2023-04-15T04:28:12;14.65;;;8.52;;
21036;SDS011;10677;50.942;4.028;2023-04-15T04:30:38;12.23;;;8.10;;
21036;SDS011;10677;50.942;4.028;2023-04-15T04:33:04;13.13;;;7.95;;
21036;SDS011;10677;50.942;4.028;2023-04-15T04:35:31;12.77;;;7.47;;
21036;SDS011;10677;50.942;4.028;2023-04-15T04:37:59;12.40;;;7.95;;
21036;SDS011;10677;50.942;4.028;2023-04-15T04:40:25;11.55;;;8.70;;
21036;SDS011;10677;50.942;4.028;2023-04-15T04:42:51;14.88;;;9.00;;
21036;SDS011;10677;50.942;4.028;2023-04-15T04:45:17;12.88;;;8.93;;
21036;SDS011;10677;50.942;4.028;2023-04-15T04:47:43;10.75;;;7.47;;
21036;SDS011;10677;50.942;4.028;2023-04-15T04:50:09;13.23;;;8.00;;
21036;SDS011;10677;50.942;4.028;2023-04-15T04:52:35;15.23;;;8.23;;
21036;SDS011;10677;50.942;4.028;2023-04-15T04:55:01;12.80;;;7.85;;
21036;SDS011;10677;50.942;4.028;2023-04-15T04:57:26;15.95;;;8.73;;
21036;SDS011;10677;50.942;4.028;2023-04-15T04:59:52;12.88;;;9.27;;
21036;SDS011;10677;50.942;4.028;2023-04-15T05:02:18;13.15;;;9.10;;
21036;SDS011;10677;50.942;4.028;2023-04-15T05:04:43;13.88;;;9.55;;
21036;SDS011;10677;50.942;4.028;2023-04-15T05:07:09;11.63;;;8.50;;
21036;SDS011;10677;50.942;4.028;2023-04-15T05:09:35;13.57;;;9.35;;
21036;SDS011;10677;50.942;4.028;2023-04-15T05:12:01;13.25;;;9.70;;
21036;SDS011;10677;50.942;4.028;2023-04-15T05:14:30;17.25;;;11.00;;
21036;SDS011;10677;50.942;4.028;2023-04-15T05:16:56;16.08;;;11.10;;
21036;SDS011;10677;50.942;4.028;2023-04-15T05:19:21;18.20;;;11.05;;
21036;SDS011;10677;50.942;4.028;2023-04-15T05:21:47;17.75;;;12.18;;
21036;SDS011;10677;50.942;4.028;2023-04-15T05:24:13;20.60;;;12.07;;
21036;SDS011;10677;50.942;4.028;2023-04-15T05:26:38;17.23;;;11.85;;
21036;SDS011;10677;50.942;4.028;2023-04-15T05:29:04;23.38;;;12.52;;
21036;SDS011;10677;50.942;4.028;2023-04-15T05:31:30;19.30;;;11.05;;
21036;SDS011;10677;50.942;4.028;2023-04-15T05:33:55;17.38;;;10.73;;
21036;SDS011;10677;50.942;4.028;2023-04-15T05:36:21;15.18;;;11.15;;
21036;SDS011;10677;50.942;4.028;2023-04-15T05:38:47;18.75;;;12.02;;
21036;SDS011;10677;50.942;4.028;2023-04-15T05:41:12;20.98;;;11.07;;
21036;SDS011;10677;50.942;4.028;2023-04-15T05:43:39;15.38;;;11.15;;
21036;SDS011;10677;50.942;4.028;2023-04-15T05:46:05;15.27;;;10.73;;
21036;SDS011;10677;50.942;4.028;2023-04-15T05:48:32;14.98;;;10.45;;
21036;SDS011;10677;50.942;4.028;2023-04-15T05:50:58;13.75;;;9.32;;
21036;SDS011;10677;50.942;4.028;2023-04-15T05:53:24;15.07;;;9.55;;
21036;SDS011;10677;50.942;4.028;2023-04-15T05:55:50;13.38;;;10.25;;
21036;SDS011;10677;50.942;4.028;2023-04-15T05:58:16;16.25;;;10.00;;
21036;SDS011;10677;50.942;4.028;2023-04-15T06:00:41;13.40;;;9.80;;
21036;SDS011;10677;50.942;4.028;2023-04-15T06:03:08;13.50;;;9.18;;
21036;SDS011;10677;50.942;4.028;2023-04-15T06:05:35;15.93;;;9.57;;
21036;SDS011;10677;50.942;4.028;2023-04-15T06:08:01;14.95;;;9.57;;
21036;SDS011;10677;50.942;4.028;2023-04-15T06:10:26;14.70;;;8.82;;
21036;SDS011;10677;50.942;4.028;2023-04-15T06:12:52;13.50;;;9.50;;
21036;SDS011;10677;50.942;4.028;2023-04-15T06:15:18;13.07;;;9.23;;
21036;SDS011;10677;50.942;4.028;2023-04-15T06:17:44;14.35;;;9.27;;
21036;SDS011;10677;50.942;4.028;2023-04-15T06:20:10;16.83;;;9.90;;
21036;SDS011;10677;50.942;4.028;2023-04-15T06:22:36;12.38;;;8.88;;
21036;SDS011;10677;50.942;4.028;2023-04-15T06:25:03;12.30;;;8.93;;
21036;SDS011;10677;50.942;4.028;2023-04-15T06:27:29;13.52;;;8.77;;
21036;SDS011;10677;50.942;4.028;2023-04-15T06:29:55;12.63;;;8.38;;
21036;SDS011;10677;50.942;4.028;2023-04-15T06:32:20;11.50;;;8.18;;
21036;SDS011;10677;50.942;4.028;2023-04-15T06:34:46;12.70;;;8.13;;
21036;SDS011;10677;50.942;4.028;2023-04-15T06:37:12;13.52;;;9.00;;
21036;SDS011;10677;50.942;4.028;2023-04-15T06:39:40;13.88;;;8.50;;
21036;SDS011;10677;50.942;4.028;2023-04-15T06:42:07;12.95;;;8.10;;
21036;SDS011;10677;50.942;4.028;2023-04-15T06:44:33;16.58;;;8.52;;
21036;SDS011;10677;50.942;4.028;2023-04-15T06:46:59;14.15;;;8.20;;
21036;SDS011;10677;50.942;4.028;2023-04-15T06:49:25;12.73;;;8.32;;
21036;SDS011;10677;50.942;4.028;2023-04-15T06:51:50;13.02;;;8.15;;
21036;SDS011;10677;50.942;4.028;2023-04-15T06:54:16;15.60;;;9.20;;
21036;SDS011;10677;50.942;4.028;2023-04-15T06:56:42;9.82;;;7.57;;
21036;SDS011;10677;50.942;4.028;2023-04-15T06:59:08;12.07;;;8.05;;
21036;SDS011;10677;50.942;4.028;2023-04-15T07:01:33;17.17;;;8.25;;
21036;SDS011;10677;50.942;4.028;2023-04-15T07:03:59;12.73;;;7.47;;
21036;SDS011;10677;50.942;4.028;2023-04-15T07:06:25;12.43;;;7.50;;
21036;SDS011;10677;50.942;4.028;2023-04-15T07:08:51;14.30;;;7.88;;
21036;SDS011;10677;50.942;4.028;2023-04-15T07:11:18;13.00;;;7.50;;
21036;SDS011;10677;50.942;4.028;2023-04-15T07:13:45;12.40;;;7.18;;
21036;SDS011;10677;50.942;4.028;2023-04-15T07:16:10;9.85;;;6.82;;
21036;SDS011;10677;50.942;4.028;2023-04-15T07:18:36;11.05;;;6.80;;
21036;SDS011;10677;50.942;4.028;2023-04-15T07:21:02;13.70;;;7.30;;
21036;SDS011;10677;50.942;4.028;2023-04-15T07:23:27;14.80;;;8.15;;
21036;SDS011;10677;50.942;4.028;2023-04-15T07:25:53;11.57;;;7.20;;
21036;SDS011;10677;50.942;4.028;2023-04-15T07:28:19;10.50;;;6.65;;
21036;SDS011;10677;50.942;4.028;2023-04-15T07:30:44;11.43;;;7.32;;
21036;SDS011;10677;50.942;4.028;2023-04-15T07:33:10;13.15;;;7.57;;
21036;SDS011;10677;50.942;4.028;2023-04-15T07:35:36;14.48;;;7.55;;
21036;SDS011;10677;50.942;4.028;2023-04-15T07:38:02;11.48;;;7.53;;
21036;SDS011;10677;50.942;4.028;2023-04-15T07:40:27;10.70;;;6.97;;
21036;SDS011;10677;50.942;4.028;2023-04-15T07:42:54;10.80;;;7.40;;
21036;SDS011;10677;50.942;4.028;2023-04-15T07:45:22;12.32;;;8.00;;
21036;SDS011;10677;50.942;4.028;2023-04-15T07:47:48;14.48;;;7.40;;
21036;SDS011;10677;50.942;4.028;2023-04-15T07:50:15;14.93;;;7.63;;
21036;SDS011;10677;50.942;4.028;2023-04-15T07:52:41;13.20;;;8.05;;
21036;SDS011;10677;50.942;4.028;2023-04-15T07:55:07;13.80;;;8.80;;
21036;SDS011;10677;50.942;4.028;2023-04-15T07:57:34;14.93;;;8.55;;
21036;SDS011;10677;50.942;4.028;2023-04-15T08:00:01;16.02;;;9.45;;
21036;SDS011;10677;50.942;4.028;2023-04-15T08:02:29;17.52;;;9.68;;
21036;SDS011;10677;50.942;4.028;2023-04-15T08:04:55;17.95;;;10.02;;
21036;SDS011;10677;50.942;4.028;2023-04-15T08:07:22;16.77;;;10.60;;
21036;SDS011;10677;50.942;4.028;2023-04-15T08:09:47;17.25;;;10.82;;
21036;SDS011;10677;50.942;4.028;2023-04-15T08:12:13;18.20;;;11.52;;
21036;SDS011;10677;50.942;4.028;2023-04-15T08:14:39;18.17;;;11.88;;
21036;SDS011;10677;50.942;4.028;2023-04-15T08:17:05;17.48;;;11.35;;
21036;SDS011;10677;50.942;4.028;2023-04-15T08:19:31;17.08;;;11.30;;
21036;SDS011;10677;50.942;4.028;2023-04-15T08:21:57;19.45;;;11.80;;
21036;SDS011;10677;50.942;4.028;2023-04-15T08:24:23;17.60;;;11.43;;
21036;SDS011;10677;50.942;4.028;2023-04-15T08:26:50;17.67;;;11.77;;
21036;SDS011;10677;50.942;4.028;2023-04-15T08:29:16;17.38;;;11.73;;
21036;SDS011;10677;50.942;4.028;2023-04-15T08:31:42;14.65;;;11.43;;
21036;SDS011;10677;50.942;4.028;2023-04-15T08:34:08;17.48;;;11.20;;
21036;SDS011;10677;50.942;4.028;2023-04-15T08:36:35;23.45;;;12.45;;
21036;SDS011;10677;50.942;4.028;2023-04-15T08:39:01;20.75;;;11.88;;
21036;SDS011;10677;50.942;4.028;2023-04-15T08:41:28;19.48;;;12.27;;
21036;SDS011;10677;50.942;4.028;2023-04-15T08:44:03;15.02;;;11.65;;
21036;SDS011;10677;50.942;4.028;2023-04-15T08:46:30;18.13;;;11.50;;
21036;SDS011;10677;50.942;4.028;2023-04-15T08:48:58;18.42;;;12.05;;
21036;SDS011;10677;50.942;4.028;2023-04-15T08:51:24;18.48;;;11.20;;
21036;SDS011;10677;50.942;4.028;2023-04-15T08:53:50;17.08;;;11.45;;
21036;SDS011;10677;50.942;4.028;2023-04-15T08:56:17;18.25;;;11.50;;
21036;SDS011;10677;50.942;4.028;2023-04-15T08:58:44;18.33;;;11.07;;
21036;SDS011;10677;50.942;4.028;2023-04-15T09:01:11;21.77;;;11.88;;
21036;SDS011;10677;50.942;4.028;2023-04-15T09:03:37;20.73;;;12.05;;
21036;SDS011;10677;50.942;4.028;2023-04-15T09:06:04;16.30;;;10.05;;
21036;SDS011;10677;50.942;4.028;2023-04-15T09:08:30;20.98;;;11.50;;
21036;SDS011;10677;50.942;4.028;2023-04-15T09:10:56;19.40;;;11.15;;
21036;SDS011;10677;50.942;4.028;2023-04-15T09:13:22;15.60;;;10.73;;
21036;SDS011;10677;50.942;4.028;2023-04-15T09:15:48;14.88;;;10.18;;
21036;SDS011;10677;50.942;4.028;2023-04-15T09:18:25;16.90;;;10.32;;
21036;SDS011;10677;50.942;4.028;2023-04-15T09:20:55;13.90;;;9.48;;
21036;SDS011;10677;50.942;4.028;2023-04-15T09:23:29;15.75;;;9.68;;
21036;SDS011;10677;50.942;4.028;2023-04-15T09:25:56;16.77;;;10.05;;
21036;SDS011;10677;50.942;4.028;2023-04-15T09:28:25;15.75;;;10.27;;
21036;SDS011;10677;50.942;4.028;2023-04-15T09:30:51;17.38;;;9.40;;
21036;SDS011;10677;50.942;4.028;2023-04-15T09:33:20;18.73;;;9.55;;
21036;SDS011;10677;50.942;4.028;2023-04-15T09:35:56;13.85;;;8.60;;
21036;SDS011;10677;50.942;4.028;2023-04-15T09:38:27;13.77;;;8.93;;
21036;SDS011;10677;50.942;4.028;2023-04-15T09:40:53;17.73;;;8.35;;
21036;SDS011;10677;50.942;4.028;2023-04-15T09:43:20;14.38;;;8.77;;
21036;SDS011;10677;50.942;4.028;2023-04-15T09:45:47;17.20;;;8.30;;
21036;SDS011;10677;50.942;4.028;2023-04-15T09:48:23;11.80;;;8.27;;
21036;SDS011;10677;50.942;4.028;2023-04-15T09:50:56;16.45;;;9.10;;
21036;SDS011;10677;50.942;4.028;2023-04-15T09:53:24;12.52;;;7.95;;
21036;SDS011;10677;50.942;4.028;2023-04-15T09:55:54;11.95;;;8.07;;
21036;SDS011;10677;50.942;4.028;2023-04-15T09:58:28;12.20;;;7.43;;
21036;SDS011;10677;50.942;4.028;2023-04-15T10:00:56;9.23;;;7.05;;
21036;SDS011;10677;50.942;4.028;2023-04-15T10:03:27;14.63;;;8.43;;
21036;SDS011;10677;50.942;4.028;2023-04-15T10:05:54;14.60;;;7.82;;
21036;SDS011;10677;50.942;4.028;2023-04-15T10:08:25;11.60;;;7.32;;
21036;SDS011;10677;50.942;4.028;2023-04-15T10:10:53;10.48;;;6.25;;
21036;SDS011;10677;50.942;4.028;2023-04-15T10:13:20;8.57;;;5.53;;
21036;SDS011;10677;50.942;4.028;2023-04-15T10:16:09;8.40;;;4.25;;
21036;SDS011;10677;50.942;4.028;2023-04-15T10:18:42;10.18;;;5.18;;
21036;SDS011;10677;50.942;4.028;2023-04-15T10:21:09;9.77;;;5.90;;
21036;SDS011;10677;50.942;4.028;2023-04-15T10:23:37;7.72;;;4.65;;
21036;SDS011;10677;50.942;4.028;2023-04-15T10:26:04;7.55;;;4.35;;
21036;SDS011;10677;50.942;4.028;2023-04-15T10:28:30;8.02;;;4.35;;
21036;SDS011;10677;50.942;4.028;2023-04-15T10:30:56;5.10;;;3.50;;
21036;SDS011;10677;50.942;4.028;2023-04-15T10:33:23;6.82;;;3.30;;
21036;SDS011;10677;50.942;4.028;2023-04-15T10:35:51;6.13;;;3.28;;
21036;SDS011;10677;50.942;4.028;2023-04-15T10:44:14;6.22;;;3.67;;
21036;SDS011;10677;50.942;4.028;2023-04-15T10:46:37;7.32;;;3.70;;
21036;SDS011;10677;50.942;4.028;2023-04-15T10:49:14;7.32;;;3.30;;
21036;SDS011;10677;50.942;4.028;2023-04-15T10:51:42;5.47;;;2.72;;
21036;SDS011;10677;50.942;4.028;2023-04-15T10:54:12;6.05;;;2.88;;
21036;SDS011;10677;50.942;4.028;2023-04-15T10:56:45;6.55;;;2.42;;
21036;SDS011;10677;50.942;4.028;2023-04-15T10:59:27;7.40;;;3.40;;
21036;SDS011;10677;50.942;4.028;2023-04-15T11:02:00;5.97;;;3.30;;
21036;SDS011;10677;50.942;4.028;2023-04-15T11:12:37;6.55;;;2.92;;
21036;SDS011;10677;50.942;4.028;2023-04-15T11:17:59;5.53;;;2.80;;
21036;SDS011;10677;50.942;4.028;2023-04-15T11:20:37;7.53;;;2.72;;
21036;SDS011;10677;50.942;4.028;2023-04-15T11:23:04;5.95;;;2.30;;
21036;SDS011;10677;50.942;4.028;2023-04-15T11:25:31;4.65;;;2.60;;
21036;SDS011;10677;50.942;4.028;2023-04-15T11:27:58;7.07;;;2.83;;
21036;SDS011;10677;50.942;4.028;2023-04-15T11:30:27;4.75;;;2.60;;
21036;SDS011;10677;50.942;4.028;2023-04-15T11:32:56;5.90;;;2.85;;
21036;SDS011;10677;50.942;4.028;2023-04-15T11:35:27;6.28;;;2.80;;
21036;SDS011;10677;50.942;4.028;2023-04-15T11:37:53;5.70;;;2.95;;
21036;SDS011;10677;50.942;4.028;2023-04-15T11:40:28;7.00;;;2.47;;
21036;SDS011;10677;50.942;4.028;2023-04-15T11:43:08;4.55;;;2.50;;
21036;SDS011;10677;50.942;4.028;2023-04-15T11:45:55;6.85;;;3.28;;
21036;SDS011;10677;50.942;4.028;2023-04-15T11:48:25;4.78;;;3.08;;
21036;SDS011;10677;50.942;4.028;2023-04-15T11:50:56;4.07;;;2.58;;
21036;SDS011;10677;50.942;4.028;2023-04-15T11:53:42;3.83;;;2.20;;
21036;SDS011;10677;50.942;4.028;2023-04-15T11:56:10;3.58;;;1.75;;
21036;SDS011;10677;50.942;4.028;2023-04-15T11:58:46;3.20;;;1.67;;
21036;SDS011;10677;50.942;4.028;2023-04-15T12:01:15;5.35;;;2.30;;
21036;SDS011;10677;50.942;4.028;2023-04-15T12:03:42;5.47;;;2.60;;
21036;SDS011;10677;50.942;4.028;2023-04-15T12:08:59;5.10;;;2.80;;
21036;SDS011;10677;50.942;4.028;2023-04-15T12:11:41;6.53;;;2.50;;
21036;SDS011;10677;50.942;4.028;2023-04-15T12:16:49;4.22;;;1.90;;
21036;SDS011;10677;50.942;4.028;2023-04-15T12:19:25;4.10;;;2.20;;
21036;SDS011;10677;50.942;4.028;2023-04-15T12:21:54;4.78;;;2.03;;
21036;SDS011;10677;50.942;4.028;2023-04-15T12:24:25;6.25;;;2.60;;
21036;SDS011;10677;50.942;4.028;2023-04-15T12:26:55;4.20;;;2.63;;
21036;SDS011;10677;50.942;4.028;2023-04-15T12:29:26;5.30;;;2.95;;
21036;SDS011;10677;50.942;4.028;2023-04-15T12:31:53;6.88;;;3.10;;
21036;SDS011;10677;50.942;4.028;2023-04-15T12:34:25;3.40;;;2.50;;
21036;SDS011;10677;50.942;4.028;2023-04-15T12:36:52;4.38;;;2.75;;
21036;SDS011;10677;50.942;4.028;2023-04-15T12:39:21;3.88;;;2.25;;
21036;SDS011;10677;50.942;4.028;2023-04-15T12:41:48;3.90;;;1.75;;
21036;SDS011;10677;50.942;4.028;2023-04-15T12:44:13;2.45;;;1.45;;
21036;SDS011;10677;50.942;4.028;2023-04-15T12:46:39;6.57;;;2.20;;
21036;SDS011;10677;50.942;4.028;2023-04-15T12:49:05;5.97;;;2.65;;
21036;SDS011;10677;50.942;4.028;2023-04-15T12:51:31;3.70;;;2.28;;
21036;SDS011;10677;50.942;4.028;2023-04-15T12:53:56;7.18;;;3.38;;
21036;SDS011;10677;50.942;4.028;2023-04-15T12:56:22;6.80;;;3.05;;
21036;SDS011;10677;50.942;4.028;2023-04-15T12:58:48;6.75;;;3.53;;
21036;SDS011;10677;50.942;4.028;2023-04-15T13:01:14;4.60;;;2.72;;
21036;SDS011;10677;50.942;4.028;2023-04-15T13:03:39;5.35;;;3.08;;
21036;SDS011;10677;50.942;4.028;2023-04-15T13:06:05;10.05;;;3.33;;
21036;SDS011;10677;50.942;4.028;2023-04-15T13:08:31;6.50;;;2.90;;
21036;SDS011;10677;50.942;4.028;2023-04-15T13:10:57;6.45;;;2.55;;
21036;SDS011;10677;50.942;4.028;2023-04-15T13:13:23;6.53;;;2.75;;
21036;SDS011;10677;50.942;4.028;2023-04-15T13:15:48;6.00;;;2.55;;
21036;SDS011;10677;50.942;4.028;2023-04-15T13:18:14;6.65;;;2.30;;
21036;SDS011;10677;50.942;4.028;2023-04-15T13:20:40;5.82;;;2.58;;
21036;SDS011;10677;50.942;4.028;2023-04-15T13:23:06;5.22;;;2.90;;
21036;SDS011;10677;50.942;4.028;2023-04-15T13:25:31;5.88;;;2.60;;
21036;SDS011;10677;50.942;4.028;2023-04-15T13:27:57;7.22;;;3.08;;
21036;SDS011;10677;50.942;4.028;2023-04-15T13:30:23;6.22;;;2.55;;
21036;SDS011;10677;50.942;4.028;2023-04-15T13:32:49;6.00;;;2.63;;
21036;SDS011;10677;50.942;4.028;2023-04-15T13:35:15;5.00;;;2.42;;
21036;SDS011;10677;50.942;4.028;2023-04-15T13:37:40;3.67;;;2.08;;
21036;SDS011;10677;50.942;4.028;2023-04-15T13:40:06;6.13;;;2.60;;
21036;SDS011;10677;50.942;4.028;2023-04-15T13:42:32;5.85;;;2.40;;
21036;SDS011;10677;50.942;4.028;2023-04-15T13:44:58;3.85;;;2.10;;
21036;SDS011;10677;50.942;4.028;2023-04-15T13:47:24;5.13;;;2.22;;
21036;SDS011;10677;50.942;4.028;2023-04-15T13:49:50;4.88;;;2.55;;
21036;SDS011;10677;50.942;4.028;2023-04-15T13:52:18;6.43;;;2.80;;
21036;SDS011;10677;50.942;4.028;2023-04-15T13:54:43;7.40;;;3.20;;
21036;SDS011;10677;50.942;4.028;2023-04-15T13:57:09;6.07;;;2.95;;
21036;SDS011;10677;50.942;4.028;2023-04-15T13:59:35;4.75;;;2.30;;
21036;SDS011;10677;50.942;4.028;2023-04-15T14:02:01;6.18;;;2.13;;
21036;SDS011;10677;50.942;4.028;2023-04-15T14:04:26;6.43;;;1.85;;
21036;SDS011;10677;50.942;4.028;2023-04-15T14:06:52;4.85;;;1.50;;
21036;SDS011;10677;50.942;4.028;2023-04-15T14:09:18;4.25;;;1.55;;
21036;SDS011;10677;50.942;4.028;2023-04-15T14:11:46;6.35;;;1.90;;
21036;SDS011;10677;50.942;4.028;2023-04-15T14:14:11;6.53;;;1.77;;
21036;SDS011;10677;50.942;4.028;2023-04-15T14:16:37;4.85;;;1.90;;
21036;SDS011;10677;50.942;4.028;2023-04-15T14:19:03;5.18;;;2.22;;
21036;SDS011;10677;50.942;4.028;2023-04-15T14:21:28;5.88;;;2.17;;
21036;SDS011;10677;50.942;4.028;2023-04-15T14:23:56;5.40;;;2.58;;
21036;SDS011;10677;50.942;4.028;2023-04-15T14:26:21;6.10;;;2.35;;
21036;SDS011;10677;50.942;4.028;2023-04-15T14:28:47;5.95;;;2.45;;
21036;SDS011;10677;50.942;4.028;2023-04-15T14:31:13;7.82;;;2.45;;
21036;SDS011;10677;50.942;4.028;2023-04-15T14:33:38;5.93;;;2.80;;
21036;SDS011;10677;50.942;4.028;2023-04-15T14:36:05;8.20;;;3.13;;
21036;SDS011;10677;50.942;4.028;2023-04-15T14:38:34;7.25;;;3.00;;
21036;SDS011;10677;50.942;4.028;2023-04-15T14:41:06;6.32;;;3.30;;
21036;SDS011;10677;50.942;4.028;2023-04-15T14:43:33;6.13;;;3.30;;
21036;SDS011;10677;50.942;4.028;2023-04-15T14:45:59;6.53;;;3.10;;
21036;SDS011;10677;50.942;4.028;2023-04-15T14:48:25;9.45;;;3.60;;
21036;SDS011;10677;50.942;4.028;2023-04-15T14:50:51;5.63;;;3.45;;
21036;SDS011;10677;50.942;4.028;2023-04-15T14:53:18;8.52;;;3.00;;
21036;SDS011;10677;50.942;4.028;2023-04-15T14:55:44;8.75;;;3.25;;
21036;SDS011;10677;50.942;4.028;2023-04-15T14:58:10;6.18;;;3.53;;
21036;SDS011;10677;50.942;4.028;2023-04-15T15:00:37;5.82;;;3.50;;